createdAt,value
2022-07-25T00:00:11.679Z,49.92
2022-07-25T00:02:40.480Z,50.18
2022-07-25T00:05:09.777Z,50.37
2022-07-25T00:07:39.988Z,50.61
2022-07-25T00:10:09.914Z,50.27
2022-07-25T00:12:38.818Z,51.13
2022-07-25T00:15:08.682Z,50.99
2022-07-25T00:17:37.511Z,51.34
2022-07-25T00:20:07.521Z,51.84
2022-07-25T00:22:36.558Z,52.18
2022-07-25T00:25:07.683Z,52.44
2022-07-25T00:27:36.444Z,52.36
2022-07-25T00:30:06.531Z,52.31
2022-07-25T00:32:35.368Z,52.48
2022-07-25T00:35:05.971Z,52.75
2022-07-25T00:37:34.831Z,52.48
2022-07-25T00:40:03.737Z,52.35
2022-07-25T00:42:34.320Z,52.89
2022-07-25T00:45:03.158Z,53.11
2022-07-25T00:47:31.874Z,52.72
2022-07-25T00:50:00.803Z,52.70
2022-07-25T00:52:29.660Z,53.25
2022-07-25T00:54:58.632Z,53.07
2022-07-25T00:57:28.389Z,53.16
2022-07-25T00:59:58.820Z,53.26
2022-07-25T01:02:27.830Z,53.79
2022-07-25T01:04:57.389Z,53.66
2022-07-25T01:07:27.362Z,53.88
2022-07-25T01:09:56.656Z,53.96
2022-07-25T01:12:25.629Z,53.92
2022-07-25T01:14:54.517Z,54.09
2022-07-25T01:17:24.708Z,54.10
2022-07-25T01:19:54.008Z,53.91
2022-07-25T01:22:24.204Z,54.17
2022-07-25T01:24:53.019Z,54.15
2022-07-25T01:27:21.802Z,54.20
2022-07-25T01:29:50.712Z,54.40
2022-07-25T01:32:20.494Z,54.18
2022-07-25T01:34:49.280Z,54.63
2022-07-25T01:37:19.158Z,54.48
2022-07-25T01:39:49.433Z,54.28
2022-07-25T01:42:18.228Z,55.14
2022-07-25T01:44:47.182Z,54.98
2022-07-25T01:47:17.475Z,55.11
2022-07-25T01:49:46.480Z,55.03
2022-07-25T01:52:15.785Z,54.95
2022-07-25T01:54:44.632Z,54.12
2022-07-25T01:57:14.844Z,53.78
2022-07-25T01:59:45.678Z,54.09
2022-07-25T02:02:14.483Z,54.17
2022-07-25T02:04:43.516Z,54.21
2022-07-25T02:07:12.361Z,54.58
2022-07-25T02:09:41.631Z,55.00
2022-07-25T02:12:10.913Z,54.90
2022-07-25T02:14:41.278Z,55.45
2022-07-25T02:17:10.145Z,55.68
2022-07-25T02:19:39.228Z,55.74
2022-07-25T02:22:09.466Z,55.68
2022-07-25T02:24:38.622Z,55.40
2022-07-25T02:27:07.523Z,55.44
2022-07-25T02:29:37.070Z,55.74
2022-07-25T02:32:08.207Z,55.83
2022-07-25T02:34:37.138Z,55.83
2022-07-25T02:37:06.004Z,56.14
2022-07-25T02:39:34.952Z,56.16
2022-07-25T02:42:03.785Z,55.73
2022-07-25T02:44:32.667Z,56.17
2022-07-25T02:47:01.432Z,56.13
2022-07-25T02:49:31.838Z,55.84
2022-07-25T03:00:25.203Z,57.14
2022-07-25T03:02:54.197Z,57.02
2022-07-25T03:05:24.557Z,57.10
2022-07-25T03:07:53.712Z,56.53
2022-07-25T03:10:23.553Z,55.58
2022-07-25T03:12:52.482Z,55.13
2022-07-25T03:15:21.210Z,54.20
2022-07-25T03:17:50.125Z,54.32
2022-07-25T03:20:18.919Z,54.44
2022-07-25T03:22:49.311Z,54.56
2022-07-25T03:25:21.853Z,54.32
2022-07-25T03:27:51.954Z,54.68
2022-07-25T03:30:21.091Z,54.46
2022-07-25T03:32:49.940Z,54.94
2022-07-25T03:35:18.796Z,54.88
2022-07-25T03:37:49.324Z,54.81
2022-07-25T03:40:18.218Z,54.78
2022-07-25T03:42:47.046Z,55.16
2022-07-25T03:45:16.986Z,54.90
2022-07-25T03:47:45.951Z,55.19
2022-07-25T03:50:15.968Z,55.20
2022-07-25T03:52:44.829Z,55.16
2022-07-25T03:55:15.141Z,55.83
2022-07-25T03:57:44.123Z,56.35
2022-07-25T04:00:13.820Z,56.59
2022-07-25T04:02:42.852Z,56.38
2022-07-25T04:05:12.135Z,57.57
2022-07-25T04:07:41.284Z,58.38
2022-07-25T04:10:11.897Z,59.85
2022-07-25T04:12:42.321Z,60.09
2022-07-25T04:15:12.753Z,59.88
2022-07-25T04:17:41.630Z,60.31
2022-07-25T04:20:11.378Z,60.80
2022-07-25T04:22:44.836Z,60.96
2022-07-25T04:25:15.634Z,60.61
2022-07-25T04:27:45.933Z,60.59
2022-07-25T04:30:24.550Z,60.52
2022-07-25T04:32:54.302Z,60.28
2022-07-25T04:35:23.114Z,60.58
2022-07-25T04:37:52.119Z,60.50
2022-07-25T04:40:21.067Z,60.46
2022-07-25T04:42:51.401Z,60.28
2022-07-25T04:45:20.298Z,60.40
2022-07-25T04:47:49.426Z,60.29
2022-07-25T04:50:24.555Z,60.23
2022-07-25T04:52:53.867Z,60.43
2022-07-25T04:55:22.856Z,60.36
2022-07-25T04:57:53.231Z,60.32
2022-07-25T05:00:24.087Z,59.88
2022-07-25T05:02:53.989Z,59.64
2022-07-25T05:05:22.968Z,59.57
2022-07-25T05:07:52.524Z,59.65
2022-07-25T05:10:21.393Z,59.57
2022-07-25T05:12:50.267Z,59.78
2022-07-25T05:15:20.649Z,59.82
2022-07-25T05:17:49.827Z,59.62
2022-07-25T05:20:18.740Z,59.49
2022-07-25T05:22:47.581Z,59.71
2022-07-25T05:25:16.562Z,59.60
2022-07-25T05:27:45.591Z,59.49
2022-07-25T05:30:15.657Z,59.71
2022-07-25T05:32:45.903Z,59.39
2022-07-25T05:35:14.805Z,59.45
2022-07-25T05:37:43.723Z,59.45
2022-07-25T05:40:13.681Z,59.30
2022-07-25T05:42:42.447Z,59.36
2022-07-25T05:45:11.861Z,58.70
2022-07-25T05:47:40.824Z,58.42
2022-07-25T05:50:11.734Z,57.78
2022-07-25T05:52:40.558Z,57.51
2022-07-25T05:55:09.872Z,57.37
2022-07-25T05:57:38.820Z,57.26
2022-07-25T06:00:09.707Z,56.92
2022-07-25T06:02:38.727Z,56.38
2022-07-25T06:05:07.991Z,56.21
2022-07-25T06:07:38.239Z,56.40
2022-07-25T06:10:07.745Z,55.72
2022-07-25T06:12:36.904Z,54.79
2022-07-25T06:15:06.588Z,54.41
2022-07-25T06:17:35.426Z,53.45
2022-07-25T06:20:04.684Z,52.20
2022-07-25T06:22:34.540Z,51.49
2022-07-25T06:25:05.236Z,50.22
2022-07-25T06:27:34.136Z,49.98
2022-07-25T06:30:04.113Z,49.07
2022-07-25T06:32:33.111Z,48.78
2022-07-25T06:35:02.306Z,47.88
2022-07-25T06:37:31.141Z,47.04
2022-07-25T06:39:59.985Z,47.04
2022-07-25T06:42:31.641Z,45.06
2022-07-25T06:45:00.649Z,44.61
2022-07-25T06:47:32.896Z,44.49
2022-07-25T06:50:04.888Z,43.74
2022-07-25T06:52:37.384Z,43.90
2022-07-25T06:55:08.106Z,43.54
2022-07-25T06:57:39.439Z,43.54
2022-07-25T07:00:11.286Z,43.17
2022-07-25T07:02:50.409Z,42.50
2022-07-25T07:05:19.678Z,42.63
2022-07-25T07:07:48.507Z,42.72
2022-07-25T07:10:18.399Z,42.06
2022-07-25T07:12:48.869Z,41.41
2022-07-25T07:15:18.896Z,41.15
2022-07-25T07:17:47.716Z,40.27
2022-07-25T07:20:20.301Z,40.16
2022-07-25T07:22:51.872Z,38.53
2022-07-25T07:25:24.153Z,38.01
2022-07-25T07:27:59.443Z,37.52
2022-07-25T07:30:52.194Z,37.21
2022-07-25T07:33:17.572Z,36.79
2022-07-25T07:35:46.870Z,35.59
2022-07-25T07:38:18.168Z,34.11
2022-07-25T07:40:47.046Z,33.31
2022-07-25T07:43:17.291Z,32.98
2022-07-25T07:45:46.449Z,32.56
2022-07-25T07:48:15.284Z,32.62
2022-07-25T07:50:44.239Z,32.64
2022-07-25T07:53:13.619Z,32.43
2022-07-25T07:55:44.534Z,31.91
2022-07-25T07:58:15.910Z,31.69
2022-07-25T08:00:48.476Z,31.20
2022-07-25T08:03:20.659Z,31.39
2022-07-25T08:05:52.065Z,30.96
2022-07-25T08:08:21.359Z,30.58
2022-07-25T08:10:55.656Z,30.06
2022-07-25T08:13:30.878Z,29.26
2022-07-25T08:16:03.555Z,29.40
2022-07-25T08:18:33.990Z,29.00
2022-07-25T08:21:06.437Z,29.31
2022-07-25T08:23:38.462Z,29.16
2022-07-25T08:26:07.826Z,29.23
2022-07-25T08:28:36.548Z,29.17
2022-07-25T08:31:07.137Z,29.18
2022-07-25T08:33:36.070Z,29.40
2022-07-25T08:36:05.174Z,30.66
2022-07-25T08:38:35.596Z,29.99
2022-07-25T08:41:05.395Z,30.16
2022-07-25T08:43:35.226Z,30.71
2022-07-25T08:46:06.732Z,30.58
2022-07-25T08:48:39.180Z,30.35
2022-07-25T08:51:09.856Z,30.55
2022-07-25T08:53:39.232Z,30.35
2022-07-25T08:56:14.604Z,30.56
2022-07-25T08:58:46.403Z,30.32
2022-07-25T09:01:15.786Z,29.78
2022-07-25T09:03:46.708Z,29.92
2022-07-25T09:06:18.192Z,29.44
2022-07-25T09:08:54.891Z,28.12
2022-07-25T09:11:31.451Z,27.14
2022-07-25T09:14:02.414Z,27.25
2022-07-25T09:16:32.933Z,27.92
2022-07-25T09:19:14.064Z,28.08
2022-07-25T09:21:45.511Z,28.74
2022-07-25T09:24:17.679Z,28.90
2022-07-25T09:26:48.937Z,28.35
2022-07-25T09:29:23.132Z,28.44
2022-07-25T09:31:52.792Z,28.69
2022-07-25T09:34:39.028Z,28.88
2022-07-25T09:37:09.544Z,29.20
2022-07-25T09:39:45.929Z,28.52
2022-07-25T09:42:23.850Z,28.84
2022-07-25T09:45:05.349Z,28.28
2022-07-25T09:47:37.314Z,28.01
2022-07-25T09:50:09.886Z,28.17
2022-07-25T09:52:39.824Z,28.29
2022-07-25T09:55:11.147Z,28.52
2022-07-25T09:57:40.129Z,28.53
2022-07-25T10:00:13.071Z,27.95
2022-07-25T10:02:54.139Z,27.42
2022-07-25T10:05:33.849Z,27.28
2022-07-25T10:08:06.967Z,27.35
2022-07-25T10:10:40.116Z,26.10
2022-07-25T10:13:12.116Z,26.74
2022-07-25T10:15:49.032Z,26.46
2022-07-25T10:18:19.990Z,26.22
2022-07-25T10:20:53.292Z,25.74
2022-07-25T10:23:24.390Z,26.29
2022-07-25T10:26:05.312Z,26.14
2022-07-25T10:28:39.900Z,26.27
2022-07-25T10:31:23.660Z,26.46
2022-07-25T10:33:58.381Z,26.46
2022-07-25T10:36:33.909Z,26.10
2022-07-25T10:39:03.426Z,25.66
2022-07-25T10:41:32.258Z,26.00
2022-07-25T10:44:04.602Z,25.36
2022-07-25T10:46:36.898Z,24.80
2022-07-25T10:49:08.265Z,24.28
2022-07-25T10:51:41.795Z,24.71
2022-07-25T10:54:15.875Z,24.15
2022-07-25T10:56:54.690Z,23.77
2022-07-25T10:59:35.643Z,24.46
2022-07-25T11:02:05.557Z,23.69
2022-07-25T11:04:34.713Z,23.53
2022-07-25T11:07:11.972Z,23.53
2022-07-25T11:09:41.581Z,23.83
2022-07-25T11:12:11.085Z,24.12
2022-07-25T11:14:41.665Z,24.18
2022-07-25T11:17:14.830Z,24.12
2022-07-25T11:19:44.802Z,23.69
2022-07-25T11:22:17.608Z,23.96
2022-07-25T11:24:48.620Z,23.73
2022-07-25T11:27:23.567Z,23.78
2022-07-25T11:29:52.890Z,23.56
2022-07-25T11:32:22.349Z,23.44
2022-07-25T11:34:56.481Z,23.04
2022-07-25T11:37:26.991Z,22.91
2022-07-25T11:39:56.435Z,22.73
2022-07-25T11:42:27.659Z,22.81
2022-07-25T11:44:56.435Z,23.27
2022-07-25T11:47:27.595Z,23.57
2022-07-25T11:49:58.382Z,23.45
2022-07-25T11:52:31.303Z,23.31
2022-07-25T11:55:02.344Z,23.61
2022-07-25T11:57:33.984Z,24.18
2022-07-25T12:00:03.917Z,23.97
2022-07-25T12:02:39.069Z,23.78
2022-07-25T12:05:10.315Z,23.35
2022-07-25T12:07:44.800Z,23.41
2022-07-25T12:10:17.204Z,23.38
2022-07-25T12:12:48.951Z,23.55
2022-07-25T12:15:20.979Z,23.79
2022-07-25T12:17:50.863Z,24.18
2022-07-25T12:20:21.164Z,23.91
2022-07-25T12:22:52.634Z,23.92
2022-07-25T12:25:24.388Z,24.10
2022-07-25T12:27:56.669Z,24.01
2022-07-25T12:30:25.697Z,24.16
2022-07-25T12:32:55.077Z,24.10
2022-07-25T12:35:24.418Z,24.25
2022-07-25T12:37:55.180Z,24.13
2022-07-25T12:40:24.800Z,24.79
2022-07-25T12:42:53.576Z,24.87
2022-07-25T12:45:23.390Z,25.02
2022-07-25T12:47:52.511Z,24.81
2022-07-25T12:50:22.369Z,24.67
2022-07-25T12:52:51.218Z,24.74
2022-07-25T12:55:22.110Z,24.12
2022-07-25T12:57:51.552Z,23.69
2022-07-25T13:00:22.141Z,23.71
2022-07-25T13:02:53.403Z,23.76
2022-07-25T13:05:22.583Z,23.72
2022-07-25T13:07:51.696Z,23.33
2022-07-25T13:10:22.154Z,23.90
2022-07-25T13:12:51.160Z,23.60
2022-07-25T13:15:22.528Z,23.10
2022-07-25T13:17:51.856Z,23.17
2022-07-25T13:20:20.599Z,23.04
2022-07-25T13:22:49.485Z,22.33
2022-07-25T13:25:18.623Z,22.35
2022-07-25T13:27:49.889Z,22.25
2022-07-25T13:30:18.822Z,22.66
2022-07-25T13:32:47.545Z,22.56
2022-07-25T13:35:20.223Z,22.79
2022-07-25T13:37:49.866Z,23.10
2022-07-25T13:40:18.789Z,22.31
2022-07-25T13:42:49.204Z,22.62
2022-07-25T13:45:18.241Z,22.81
2022-07-25T13:47:50.261Z,22.94
2022-07-25T13:50:30.045Z,22.58
2022-07-25T13:52:59.554Z,22.90
2022-07-25T13:55:28.366Z,22.86
2022-07-25T13:57:58.681Z,22.80
2022-07-25T14:00:27.540Z,23.27
2022-07-25T14:02:56.393Z,23.78
2022-07-25T14:05:25.391Z,23.45
2022-07-25T14:07:54.415Z,23.36
2022-07-25T14:10:23.210Z,23.44
2022-07-25T14:12:52.041Z,23.60
2022-07-25T14:15:23.409Z,24.12
2022-07-25T14:17:52.544Z,24.39
2022-07-25T14:20:21.404Z,24.59
2022-07-25T14:22:50.276Z,24.60
2022-07-25T14:25:19.072Z,24.58
2022-07-25T14:27:48.255Z,24.30
2022-07-25T14:30:19.321Z,23.87
2022-07-25T14:32:49.654Z,24.21
2022-07-25T14:35:18.587Z,24.06
2022-07-25T14:37:47.658Z,24.29
2022-07-25T14:40:16.542Z,24.53
2022-07-25T14:42:45.606Z,24.66
2022-07-25T14:45:15.073Z,24.80
2022-07-25T14:47:44.044Z,24.84
2022-07-25T14:50:14.365Z,25.07
2022-07-25T14:52:43.307Z,25.42
2022-07-25T14:55:12.121Z,25.72
2022-07-25T14:57:41.079Z,25.83
2022-07-25T15:00:11.564Z,25.15
2022-07-25T15:02:40.771Z,25.35
2022-07-25T15:05:10.021Z,25.46
2022-07-25T15:07:40.619Z,25.57
2022-07-25T15:10:10.131Z,25.09
2022-07-25T15:12:38.976Z,24.70
2022-07-25T15:15:08.791Z,24.68
2022-07-25T15:17:37.705Z,24.47
2022-07-25T15:20:07.510Z,25.69
2022-07-25T15:22:36.411Z,25.46
2022-07-25T15:25:37.238Z,25.98
2022-07-25T15:27:56.267Z,26.01
2022-07-25T15:30:29.260Z,25.99
2022-07-25T15:32:58.449Z,26.57
2022-07-25T15:35:27.199Z,26.69
2022-07-25T15:37:56.116Z,27.50
2022-07-25T15:40:26.470Z,27.46
2022-07-25T15:42:55.274Z,27.85
2022-07-25T15:45:33.160Z,28.46
2022-07-25T15:48:03.910Z,28.79
2022-07-25T15:50:32.737Z,29.19
2022-07-25T15:53:01.973Z,29.65
2022-07-25T15:55:32.624Z,29.98
2022-07-25T15:58:02.447Z,30.35
2022-07-25T16:00:31.454Z,31.00
2022-07-25T16:03:00.224Z,31.12
2022-07-25T16:05:29.945Z,31.59
2022-07-25T16:08:01.117Z,32.18
2022-07-25T16:10:32.212Z,32.77
2022-07-25T16:13:01.484Z,33.85
2022-07-25T16:15:30.404Z,33.92
2022-07-25T16:18:02.535Z,33.80
2022-07-25T16:20:32.484Z,33.77
2022-07-25T16:23:01.469Z,34.23
2022-07-25T16:25:32.275Z,35.34
2022-07-25T16:28:01.394Z,35.51
2022-07-25T16:30:30.319Z,35.44
2022-07-25T16:32:59.223Z,35.65
2022-07-25T16:35:28.022Z,35.32
2022-07-25T16:37:56.902Z,34.43
2022-07-25T16:40:30.239Z,34.78
2022-07-25T16:43:01.147Z,33.85
2022-07-25T16:45:30.776Z,33.11
2022-07-25T16:47:59.629Z,32.60
2022-07-25T16:50:28.408Z,32.97
2022-07-25T16:52:57.303Z,32.18
2022-07-25T16:55:26.112Z,32.32
2022-07-25T16:57:55.322Z,32.10
2022-07-25T17:00:25.628Z,32.39
2022-07-25T17:02:54.437Z,32.12
2022-07-25T17:05:23.367Z,32.57
2022-07-25T17:07:59.019Z,32.88
2022-07-25T17:10:28.803Z,32.70
2022-07-25T17:12:57.907Z,33.31
2022-07-25T17:15:28.408Z,33.29
2022-07-25T17:17:57.337Z,32.58
2022-07-25T17:20:26.132Z,32.83
2022-07-25T17:22:54.993Z,33.32
2022-07-25T17:25:23.991Z,33.63
2022-07-25T17:27:52.930Z,33.76
2022-07-25T17:30:21.917Z,33.76
2022-07-25T17:32:56.048Z,34.11
2022-07-25T17:35:24.923Z,34.24
2022-07-25T17:37:53.765Z,33.82
2022-07-25T17:40:22.681Z,33.50
2022-07-25T17:42:51.514Z,33.46
2022-07-25T17:45:20.342Z,33.55
2022-07-25T17:47:49.171Z,33.35
2022-07-25T17:50:28.603Z,33.45
2022-07-25T17:52:59.872Z,33.45
2022-07-25T17:55:29.323Z,33.36
2022-07-25T17:57:59.851Z,32.98
2022-07-25T18:00:28.765Z,33.25
2022-07-25T18:02:57.636Z,32.97
2022-07-25T18:05:28.066Z,32.94
2022-07-25T18:07:57.020Z,33.21
2022-07-25T18:10:25.828Z,33.13
2022-07-25T18:12:54.739Z,32.84
2022-07-25T18:15:23.814Z,32.65
2022-07-25T18:17:53.153Z,32.87
2022-07-25T18:20:21.927Z,33.19
2022-07-25T18:22:52.256Z,32.80
2022-07-25T18:25:21.149Z,32.65
2022-07-25T18:27:50.038Z,33.06
2022-07-25T18:30:18.885Z,33.09
2022-07-25T18:32:47.844Z,32.64
2022-07-25T18:35:16.639Z,32.96
2022-07-25T18:37:45.347Z,32.50
2022-07-25T18:40:15.919Z,32.57
2022-07-25T18:42:44.837Z,32.34
2022-07-25T18:45:14.139Z,32.44
2022-07-25T18:47:43.143Z,32.33
2022-07-25T18:50:12.432Z,32.83
2022-07-25T18:52:41.233Z,32.83
2022-07-25T18:55:11.164Z,32.62
2022-07-25T18:57:41.439Z,32.75
2022-07-25T19:00:12.152Z,32.75
2022-07-25T19:02:40.935Z,32.36
2022-07-25T19:05:10.981Z,32.51
2022-07-25T19:07:40.709Z,33.18
2022-07-25T19:10:10.373Z,32.87
2022-07-25T19:12:41.081Z,32.54
2022-07-25T19:15:10.454Z,32.31
2022-07-25T19:17:39.308Z,32.24
2022-07-25T19:20:09.626Z,32.42
2022-07-25T19:22:38.511Z,32.12
2022-07-25T19:25:08.660Z,32.02
2022-07-25T19:27:37.523Z,31.99
2022-07-25T19:30:15.272Z,32.47
2022-07-25T19:32:46.548Z,32.36
2022-07-25T19:35:15.539Z,32.28
2022-07-25T19:37:44.440Z,32.36
2022-07-25T19:40:14.083Z,32.56
2022-07-25T19:42:43.418Z,32.45
2022-07-25T19:45:13.878Z,32.74
2022-07-25T19:47:42.752Z,32.73
2022-07-25T19:50:11.784Z,33.04
2022-07-25T19:52:40.737Z,33.30
2022-07-25T19:55:10.224Z,33.30
2022-07-25T19:57:39.183Z,33.45
2022-07-25T20:00:09.024Z,33.06
2022-07-25T20:02:43.434Z,33.12
2022-07-25T20:05:12.529Z,33.34
2022-07-25T20:07:41.447Z,32.99
2022-07-25T20:10:11.614Z,32.93
2022-07-25T20:12:42.177Z,33.45
2022-07-25T20:15:11.390Z,33.46
2022-07-25T20:17:41.847Z,34.21
2022-07-25T20:20:11.865Z,34.03
2022-07-25T20:22:42.211Z,34.99
2022-07-25T20:25:14.221Z,33.89
2022-07-25T20:27:43.353Z,33.15
2022-07-25T20:30:13.547Z,32.59
2022-07-25T20:32:45.011Z,32.56
2022-07-25T20:35:14.079Z,32.21
2022-07-25T20:37:42.871Z,31.99
2022-07-25T20:40:13.419Z,31.70
2022-07-25T20:42:42.482Z,31.72
2022-07-25T20:45:12.169Z,31.60
2022-07-25T20:47:41.141Z,31.48
2022-07-25T20:50:11.935Z,31.37
2022-07-25T20:52:40.932Z,31.60
2022-07-25T20:55:10.412Z,31.79
2022-07-25T20:57:39.280Z,32.20
2022-07-25T21:00:09.342Z,32.00
2022-07-25T21:02:38.274Z,32.30
2022-07-25T21:05:09.108Z,31.72
2022-07-25T21:07:40.541Z,31.66
2022-07-25T21:10:10.772Z,32.05
2022-07-25T21:12:39.997Z,31.84
2022-07-25T21:15:09.916Z,31.98
2022-07-25T21:17:38.864Z,31.81
2022-07-25T21:20:09.959Z,31.99
2022-07-25T21:22:40.859Z,31.95
2022-07-25T21:25:10.980Z,31.66
2022-07-25T21:27:40.439Z,31.94
2022-07-25T21:30:11.903Z,31.76
2022-07-25T21:32:42.284Z,31.67
2022-07-25T21:35:11.371Z,31.85
2022-07-25T21:37:41.808Z,31.98
2022-07-25T21:40:11.673Z,31.87
2022-07-25T21:42:40.697Z,32.01
2022-07-25T21:45:09.888Z,31.54
2022-07-25T21:47:38.671Z,32.01
2022-07-25T21:50:25.994Z,31.51
2022-07-25T21:52:56.516Z,31.63
2022-07-25T21:55:25.572Z,32.07
2022-07-25T21:57:54.652Z,31.69
2022-07-25T22:00:24.057Z,32.25
2022-07-25T22:02:52.836Z,32.35
2022-07-25T22:05:21.832Z,32.26
2022-07-25T22:07:50.865Z,32.77
2022-07-25T22:10:22.238Z,32.82
2022-07-25T22:12:51.301Z,32.80
2022-07-25T22:15:20.068Z,32.74
2022-07-25T22:17:50.172Z,33.21
2022-07-25T22:20:20.333Z,32.95
2022-07-25T22:22:49.834Z,33.30
2022-07-25T22:25:18.897Z,32.96
2022-07-25T22:27:49.117Z,33.46
2022-07-25T22:30:19.380Z,33.37
2022-07-25T22:32:48.976Z,33.83
2022-07-25T22:35:18.539Z,33.93
2022-07-25T22:37:47.685Z,33.53
2022-07-25T22:40:16.590Z,33.64
2022-07-25T22:42:45.454Z,33.96
2022-07-25T22:45:15.815Z,33.92
2022-07-25T22:47:44.650Z,33.60
2022-07-25T22:50:13.544Z,33.96
2022-07-25T22:52:42.444Z,33.66
2022-07-25T22:55:11.713Z,33.76
2022-07-25T22:57:40.527Z,33.66
2022-07-25T23:00:11.769Z,34.28
2022-07-25T23:02:42.348Z,34.08
2022-07-25T23:05:11.800Z,34.57
2022-07-25T23:07:40.983Z,34.03
2022-07-25T23:10:11.165Z,34.40
2022-07-25T23:12:40.094Z,34.40
2022-07-25T23:15:10.120Z,34.14
2022-07-25T23:17:40.027Z,34.53
2022-07-25T23:20:12.261Z,34.74
2022-07-25T23:22:41.148Z,34.37
2022-07-25T23:25:11.985Z,34.66
2022-07-25T23:27:41.187Z,35.16
2022-07-25T23:30:11.115Z,34.79
2022-07-25T23:32:40.000Z,35.12
2022-07-25T23:35:11.971Z,35.07
2022-07-25T23:37:40.833Z,34.97
2022-07-25T23:40:10.576Z,35.19
2022-07-25T23:42:39.410Z,35.39
2022-07-25T23:45:09.476Z,35.99
2022-07-25T23:47:40.873Z,36.16
2022-07-25T23:50:13.275Z,36.10
2022-07-25T23:52:42.162Z,36.05
2022-07-25T23:55:11.660Z,36.47
2022-07-25T23:57:40.503Z,36.24
